createdAt,value
2022-12-23T00:02:21.387Z,13.90
2022-12-23T00:06:23.539Z,13.90
2022-12-23T00:10:25.180Z,13.90
2022-12-23T00:14:45.980Z,13.90
2022-12-23T00:18:47.905Z,13.90
2022-12-23T00:23:04.875Z,13.90
2022-12-23T00:27:06.823Z,13.90
2022-12-23T00:31:08.683Z,13.90
2022-12-23T00:35:10.549Z,13.90
2022-12-23T00:39:31.988Z,13.90
2022-12-23T00:43:33.712Z,13.90
2022-12-23T00:47:54.272Z,13.90
2022-12-23T00:51:56.327Z,13.80
2022-12-23T00:55:58.330Z,13.90
2022-12-23T01:00:00.199Z,13.80
2022-12-23T01:04:21.841Z,13.90
2022-12-23T01:08:23.822Z,13.80
2022-12-23T01:12:25.611Z,13.90
2022-12-23T01:16:27.935Z,13.90
2022-12-23T01:20:29.828Z,13.90
2022-12-23T01:24:33.093Z,13.80
2022-12-23T01:28:35.714Z,13.80
2022-12-23T01:32:37.515Z,13.90
2022-12-23T01:36:39.594Z,13.90
2022-12-23T01:40:44.102Z,13.80
2022-12-23T01:45:01.760Z,13.90
2022-12-23T01:49:03.463Z,13.90
2022-12-23T01:53:28.165Z,13.90
2022-12-23T01:57:30.537Z,13.90
2022-12-23T02:01:51.059Z,13.90
2022-12-23T02:05:53.911Z,13.90
2022-12-23T02:09:56.170Z,13.80
2022-12-23T02:14:42.741Z,13.90
2022-12-23T02:19:14.923Z,13.90
2022-12-23T02:23:38.019Z,13.90
2022-12-23T02:27:45.533Z,13.80
2022-12-23T02:32:24.550Z,13.90
2022-12-23T02:36:46.403Z,13.90
2022-12-23T02:41:05.101Z,13.90
2022-12-23T02:45:23.329Z,13.90
2022-12-23T02:49:37.939Z,13.90
2022-12-23T02:53:50.942Z,13.80
2022-12-23T02:57:55.257Z,13.90
2022-12-23T03:01:58.618Z,13.90
2022-12-23T03:06:02.427Z,13.90
2022-12-23T03:10:43.586Z,13.90
2022-12-23T03:15:15.250Z,13.80
2022-12-23T03:19:32.537Z,13.80
2022-12-23T03:23:37.661Z,13.80
2022-12-23T03:27:45.251Z,13.90
2022-12-23T03:31:49.795Z,13.80
2022-12-23T03:36:11.336Z,13.80
2022-12-23T03:40:36.802Z,13.90
2022-12-23T03:44:57.219Z,13.80
2022-12-23T03:49:11.700Z,13.80
2022-12-23T03:53:29.800Z,13.80
2022-12-23T03:57:40.344Z,13.90
2022-12-23T04:02:00.346Z,13.90
2022-12-23T04:06:05.068Z,13.90
2022-12-23T04:10:08.564Z,13.80
2022-12-23T04:14:10.199Z,13.80
2022-12-23T04:18:12.187Z,13.80
2022-12-23T04:22:15.140Z,13.80
2022-12-23T04:26:16.815Z,13.90
2022-12-23T04:30:18.942Z,13.80
2022-12-23T04:34:21.405Z,13.90
2022-12-23T04:38:23.251Z,13.80
2022-12-23T04:42:25.387Z,13.80
2022-12-23T04:46:27.135Z,13.90
2022-12-23T04:50:29.090Z,13.90
2022-12-23T04:54:31.167Z,13.80
2022-12-23T04:58:33.150Z,13.80
2022-12-23T05:02:34.945Z,13.90
2022-12-23T05:06:37.788Z,13.90
2022-12-23T05:10:39.488Z,13.90
2022-12-23T05:14:42.608Z,13.90
2022-12-23T05:18:44.428Z,13.90
2022-12-23T05:22:46.057Z,13.90
2022-12-23T05:26:59.229Z,13.90
2022-12-23T05:31:04.422Z,13.90
2022-12-23T05:35:06.767Z,13.90
2022-12-23T05:39:14.167Z,13.90
2022-12-23T05:43:16.597Z,13.90
2022-12-23T05:47:18.268Z,13.90
2022-12-23T05:51:19.995Z,14.00
2022-12-23T05:55:22.141Z,13.90
2022-12-23T05:59:28.995Z,14.00
2022-12-23T06:03:32.913Z,13.90
2022-12-23T06:07:35.237Z,14.00
2022-12-23T06:11:37.281Z,14.00
2022-12-23T06:15:39.118Z,13.90
2022-12-23T06:19:40.825Z,13.90
2022-12-23T06:23:42.425Z,14.00
2022-12-23T06:27:44.391Z,13.90
2022-12-23T06:31:46.119Z,14.00
2022-12-23T06:35:48.039Z,14.00
2022-12-23T06:39:49.954Z,14.00
2022-12-23T06:43:54.409Z,14.00
2022-12-23T06:47:56.749Z,14.00
2022-12-23T06:51:58.656Z,14.00
2022-12-23T06:56:01.287Z,14.00
2022-12-23T07:00:05.320Z,14.00
2022-12-23T07:04:07.086Z,14.00
2022-12-23T07:08:08.785Z,14.00
2022-12-23T07:12:10.538Z,14.00
2022-12-23T07:16:12.432Z,14.00
2022-12-23T07:20:14.410Z,14.00
2022-12-23T07:24:16.107Z,14.00
2022-12-23T07:28:18.284Z,14.00
2022-12-23T07:32:20.131Z,14.00
2022-12-23T07:36:23.004Z,14.00
2022-12-23T07:40:25.565Z,14.00
2022-12-23T07:44:30.075Z,14.00
2022-12-23T07:48:34.982Z,14.00
2022-12-23T07:52:39.690Z,14.00
2022-12-23T07:56:42.968Z,14.00
2022-12-23T08:00:44.582Z,14.00
2022-12-23T08:04:46.771Z,14.00
2022-12-23T08:08:48.594Z,14.00
2022-12-23T08:12:50.447Z,14.00
2022-12-23T08:16:52.127Z,14.00
2022-12-23T08:20:55.792Z,14.00
2022-12-23T08:24:57.512Z,14.00
2022-12-23T08:29:03.161Z,14.00
2022-12-23T08:33:08.137Z,14.00
2022-12-23T08:37:10.085Z,14.00
2022-12-23T08:41:14.532Z,14.00
2022-12-23T08:45:16.405Z,14.00
2022-12-23T08:49:24.485Z,14.00
2022-12-23T08:53:26.205Z,14.00
2022-12-23T08:57:27.935Z,14.00
2022-12-23T09:01:32.348Z,14.00
2022-12-23T09:05:38.841Z,14.00
2022-12-23T09:09:40.768Z,14.00
2022-12-23T09:13:43.214Z,14.00
2022-12-23T09:17:45.105Z,14.00
2022-12-23T09:21:47.782Z,14.00
2022-12-23T09:25:49.647Z,14.00
2022-12-23T09:29:51.637Z,14.00
2022-12-23T09:33:54.669Z,14.00
2022-12-23T09:37:56.666Z,14.00
2022-12-23T09:42:06.500Z,14.10
2022-12-23T09:46:21.862Z,14.20
2022-12-23T09:50:30.045Z,14.20
2022-12-23T09:54:48.734Z,14.30
2022-12-23T09:59:16.571Z,14.30
2022-12-23T10:03:45.416Z,14.30
2022-12-23T10:08:03.960Z,14.40
2022-12-23T10:12:30.647Z,14.40
2022-12-23T10:16:40.084Z,14.40
2022-12-23T10:20:59.998Z,14.40
2022-12-23T10:25:03.129Z,14.40
2022-12-23T10:29:37.049Z,14.40
2022-12-23T10:33:56.173Z,14.40
2022-12-23T10:38:04.122Z,14.40
2022-12-23T10:42:15.034Z,14.40
2022-12-23T10:46:49.155Z,14.50
2022-12-23T10:51:04.785Z,14.40
2022-12-23T10:55:15.254Z,14.50
2022-12-23T10:59:24.738Z,14.50
2022-12-23T11:03:33.984Z,14.50
2022-12-23T11:07:45.127Z,14.50
2022-12-23T11:11:54.687Z,14.50
2022-12-23T11:16:31.480Z,14.50
2022-12-23T11:20:38.641Z,14.60
2022-12-23T11:24:43.287Z,14.50
2022-12-23T11:29:05.845Z,14.50
2022-12-23T11:33:38.013Z,14.60
2022-12-23T11:37:45.442Z,14.60
2022-12-23T11:41:48.843Z,14.60
2022-12-23T11:46:18.401Z,14.60
2022-12-23T11:50:57.670Z,14.60
2022-12-23T11:55:04.774Z,14.60
2022-12-23T11:59:09.928Z,14.60
2022-12-23T12:03:18.614Z,14.60
2022-12-23T12:07:20.413Z,14.60
2022-12-23T12:11:26.988Z,14.60
2022-12-23T12:15:45.792Z,14.60
2022-12-23T12:19:57.687Z,14.60
2022-12-23T12:24:27.486Z,14.60
2022-12-23T12:28:37.506Z,14.70
2022-12-23T12:33:01.136Z,14.70
2022-12-23T12:37:22.609Z,14.60
2022-12-23T12:41:52.690Z,14.60
2022-12-23T12:46:25.300Z,14.60
2022-12-23T12:50:34.745Z,14.60
2022-12-23T12:54:50.951Z,14.60
2022-12-23T12:58:54.133Z,14.60
2022-12-23T13:03:17.691Z,14.60
2022-12-23T13:07:58.248Z,14.60
2022-12-23T13:12:03.594Z,14.60
2022-12-23T13:16:31.836Z,14.60
2022-12-23T13:20:48.764Z,14.60
2022-12-23T13:25:04.008Z,14.60
2022-12-23T13:29:36.796Z,14.60
2022-12-23T13:33:52.204Z,14.60
2022-12-23T13:38:15.675Z,14.60
2022-12-23T13:42:32.659Z,14.60
2022-12-23T13:46:44.335Z,14.60
2022-12-23T13:50:57.141Z,14.60
2022-12-23T13:55:27.858Z,14.60
2022-12-23T13:59:39.863Z,14.60
2022-12-23T14:03:42.075Z,14.60
2022-12-23T14:07:45.088Z,14.60
2022-12-23T14:11:48.500Z,14.60
2022-12-23T14:16:20.865Z,14.60
2022-12-23T14:20:55.258Z,14.60
2022-12-23T14:25:10.966Z,14.60
2022-12-23T14:29:53.279Z,14.60
2022-12-23T14:34:03.525Z,14.60
2022-12-23T14:38:10.133Z,14.60
2022-12-23T14:42:16.641Z,14.60
2022-12-23T14:46:37.234Z,14.60
2022-12-23T14:50:42.970Z,14.60
2022-12-23T14:55:00.367Z,14.60
2022-12-23T14:59:16.451Z,14.60
2022-12-23T15:03:20.359Z,14.60
2022-12-23T15:07:31.177Z,14.60
2022-12-23T15:11:35.396Z,14.60
2022-12-23T15:15:58.958Z,14.60
2022-12-23T15:20:21.671Z,14.60
2022-12-23T15:24:23.603Z,14.60
2022-12-23T15:28:37.669Z,14.60
2022-12-23T15:32:43.439Z,14.70
2022-12-23T15:36:47.116Z,14.70
2022-12-23T15:41:01.132Z,14.70
2022-12-23T15:45:27.328Z,14.70
2022-12-23T15:49:29.042Z,14.70
2022-12-23T15:53:37.492Z,14.60
2022-12-23T15:57:50.684Z,14.70
2022-12-23T16:01:53.309Z,14.70
2022-12-23T16:05:55.447Z,14.60
2022-12-23T16:09:57.107Z,14.70
2022-12-23T16:14:20.070Z,14.70
2022-12-23T16:18:25.755Z,14.70
2022-12-23T16:22:30.434Z,14.70
2022-12-23T16:26:32.301Z,14.70
2022-12-23T16:30:36.776Z,14.70
2022-12-23T16:34:38.427Z,14.70
2022-12-23T16:38:39.999Z,14.70
2022-12-23T16:42:41.602Z,14.70
2022-12-23T16:46:47.337Z,14.70
2022-12-23T16:50:49.691Z,14.70
2022-12-23T16:54:51.359Z,14.70
2022-12-23T16:58:53.185Z,14.70
2022-12-23T17:02:55.041Z,14.70
2022-12-23T17:06:56.666Z,14.70
2022-12-23T17:10:58.293Z,14.70
2022-12-23T17:15:04.352Z,14.70
2022-12-23T17:19:06.050Z,14.70
2022-12-23T17:23:30.702Z,14.70
2022-12-23T17:27:32.342Z,14.70
2022-12-23T17:31:34.661Z,14.70
2022-12-23T17:35:36.425Z,14.70
2022-12-23T17:39:38.828Z,14.70
2022-12-23T17:43:40.453Z,14.70
2022-12-23T17:47:43.331Z,14.70
2022-12-23T17:51:45.082Z,14.70
2022-12-23T17:55:46.715Z,14.80
2022-12-23T17:59:50.108Z,14.70
2022-12-23T18:03:52.261Z,14.80
2022-12-23T18:07:55.387Z,14.80
2022-12-23T18:11:57.049Z,14.80
2022-12-23T18:15:58.631Z,14.80
2022-12-23T18:20:00.639Z,14.80
2022-12-23T18:24:02.291Z,14.80
2022-12-23T18:28:04.163Z,14.80
2022-12-23T18:32:06.068Z,14.80
2022-12-23T18:36:26.183Z,14.70
2022-12-23T18:40:32.917Z,14.80
2022-12-23T18:44:34.876Z,14.70
2022-12-23T18:48:36.459Z,14.70
2022-12-23T18:52:38.097Z,14.80
2022-12-23T18:56:39.862Z,14.80
2022-12-23T19:00:41.957Z,14.80
2022-12-23T19:04:43.559Z,14.80
2022-12-23T19:08:45.127Z,14.80
2022-12-23T19:12:46.913Z,14.80
2022-12-23T19:16:52.012Z,14.80
2022-12-23T19:20:54.392Z,14.80
2022-12-23T19:25:05.473Z,14.80
2022-12-23T19:29:08.122Z,14.80
2022-12-23T19:33:09.834Z,14.70
2022-12-23T19:37:11.425Z,14.80
2022-12-23T19:41:13.026Z,14.80
2022-12-23T19:45:14.736Z,14.70
2022-12-23T19:49:20.186Z,14.80
2022-12-23T19:53:22.231Z,14.80
2022-12-23T19:57:24.537Z,14.80
2022-12-23T20:01:27.195Z,14.70
2022-12-23T20:05:28.863Z,14.80
2022-12-23T20:09:30.425Z,14.70
2022-12-23T20:13:32.626Z,14.80
2022-12-23T20:17:34.373Z,14.80
2022-12-23T20:21:37.470Z,14.80
2022-12-23T20:25:39.152Z,14.80
2022-12-23T20:29:41.293Z,14.80
2022-12-23T20:33:43.434Z,14.80
2022-12-23T20:37:45.060Z,14.80
2022-12-23T20:41:46.701Z,14.80
2022-12-23T20:45:50.339Z,14.80
2022-12-23T20:49:51.992Z,14.80
2022-12-23T20:53:55.494Z,14.80
2022-12-23T20:57:57.076Z,14.80
2022-12-23T21:01:59.335Z,14.80
2022-12-23T21:06:01.325Z,14.80
2022-12-23T21:10:03.546Z,14.80
2022-12-23T21:14:07.058Z,14.80
2022-12-23T21:18:08.852Z,14.80
2022-12-23T21:22:10.519Z,14.80
2022-12-23T21:26:15.520Z,14.80
2022-12-23T21:30:17.253Z,14.80
2022-12-23T21:34:18.949Z,14.80
2022-12-23T21:38:20.681Z,14.80
2022-12-23T21:42:22.382Z,14.80
2022-12-23T21:46:24.794Z,14.80
2022-12-23T21:50:26.649Z,14.80
2022-12-23T21:54:28.265Z,14.80
2022-12-23T21:58:29.977Z,14.80
2022-12-23T22:02:31.604Z,14.80
2022-12-23T22:06:39.398Z,14.70
2022-12-23T22:10:41.270Z,14.70
2022-12-23T22:14:42.861Z,14.70
2022-12-23T22:18:45.243Z,14.70
2022-12-23T22:22:46.828Z,14.70
2022-12-23T22:26:48.578Z,14.70
2022-12-23T22:30:50.305Z,14.70
2022-12-23T22:34:51.933Z,14.70
2022-12-23T22:38:55.879Z,14.70
2022-12-23T22:42:57.489Z,14.70
2022-12-23T22:46:59.110Z,14.70
2022-12-23T22:51:06.246Z,14.70
2022-12-23T22:55:08.305Z,14.70
2022-12-23T22:59:21.744Z,14.70
2022-12-23T23:03:23.496Z,14.70
2022-12-23T23:07:25.139Z,14.70
2022-12-23T23:11:27.852Z,14.70
2022-12-23T23:15:29.621Z,14.70
2022-12-23T23:19:31.205Z,14.70
2022-12-23T23:23:32.867Z,14.70
2022-12-23T23:27:34.741Z,14.60
2022-12-23T23:31:44.488Z,14.70
2022-12-23T23:35:46.613Z,14.70
2022-12-23T23:39:48.251Z,14.70
2022-12-23T23:43:49.878Z,14.70
2022-12-23T23:47:51.471Z,14.60
2022-12-23T23:51:53.606Z,14.60
2022-12-23T23:56:01.637Z,14.60
